sensor_id;sensor_type;location;lat;lon;timestamp;P1;durP1;ratioP1;P2;durP2;ratioP2
16922;SDS011;8578;50.938;13.556;2022-08-03T00:01:47;2.60;;;2.40;;
16922;SDS011;8578;50.938;13.556;2022-08-03T00:04:15;2.60;;;2.40;;
16922;SDS011;8578;50.938;13.556;2022-08-03T00:06:42;3.43;;;2.63;;
16922;SDS011;8578;50.938;13.556;2022-08-03T00:09:09;2.80;;;2.50;;
16922;SDS011;8578;50.938;13.556;2022-08-03T00:11:38;4.40;;;2.50;;
16922;SDS011;8578;50.938;13.556;2022-08-03T00:14:06;2.87;;;2.63;;
16922;SDS011;8578;50.938;13.556;2022-08-03T00:16:34;5.20;;;2.43;;
16922;SDS011;8578;50.938;13.556;2022-08-03T00:19:02;2.90;;;2.57;;
16922;SDS011;8578;50.938;13.556;2022-08-03T00:21:29;4.40;;;2.73;;
16922;SDS011;8578;50.938;13.556;2022-08-03T00:23:57;4.50;;;2.80;;
16922;SDS011;8578;50.938;13.556;2022-08-03T00:26:24;6.00;;;2.73;;
16922;SDS011;8578;50.938;13.556;2022-08-03T00:28:53;4.47;;;2.60;;
16922;SDS011;8578;50.938;13.556;2022-08-03T00:31:20;3.80;;;2.50;;
16922;SDS011;8578;50.938;13.556;2022-08-03T00:34:07;3.00;;;2.70;;
16922;SDS011;8578;50.938;13.556;2022-08-03T00:36:37;4.53;;;2.63;;
16922;SDS011;8578;50.938;13.556;2022-08-03T00:39:05;2.57;;;2.30;;
16922;SDS011;8578;50.938;13.556;2022-08-03T00:41:32;3.10;;;2.80;;
16922;SDS011;8578;50.938;13.556;2022-08-03T00:44:01;4.10;;;2.80;;
16922;SDS011;8578;50.938;13.556;2022-08-03T00:46:28;3.30;;;2.73;;
16922;SDS011;8578;50.938;13.556;2022-08-03T00:48:56;8.67;;;3.20;;
16922;SDS011;8578;50.938;13.556;2022-08-03T00:51:23;2.60;;;2.40;;
16922;SDS011;8578;50.938;13.556;2022-08-03T00:53:51;3.10;;;2.80;;
16922;SDS011;8578;50.938;13.556;2022-08-03T00:56:18;5.03;;;2.77;;
16922;SDS011;8578;50.938;13.556;2022-08-03T00:58:46;5.10;;;2.80;;
16922;SDS011;8578;50.938;13.556;2022-08-03T01:01:15;2.73;;;2.50;;
16922;SDS011;8578;50.938;13.556;2022-08-03T01:03:43;5.63;;;2.67;;
16922;SDS011;8578;50.938;13.556;2022-08-03T01:06:11;2.53;;;2.33;;
16922;SDS011;8578;50.938;13.556;2022-08-03T01:08:44;3.50;;;2.60;;
16922;SDS011;8578;50.938;13.556;2022-08-03T01:11:14;3.03;;;2.60;;
16922;SDS011;8578;50.938;13.556;2022-08-03T01:13:44;5.43;;;2.70;;
16922;SDS011;8578;50.938;13.556;2022-08-03T01:16:36;3.03;;;2.73;;
16922;SDS011;8578;50.938;13.556;2022-08-03T01:19:23;3.77;;;2.40;;
16922;SDS011;8578;50.938;13.556;2022-08-03T01:21:58;3.50;;;2.63;;
16922;SDS011;8578;50.938;13.556;2022-08-03T01:24:33;4.17;;;2.60;;
16922;SDS011;8578;50.938;13.556;2022-08-03T01:27:06;3.70;;;2.70;;
16922;SDS011;8578;50.938;13.556;2022-08-03T01:29:49;4.03;;;2.30;;
16922;SDS011;8578;50.938;13.556;2022-08-03T01:32:19;5.60;;;2.60;;
16922;SDS011;8578;50.938;13.556;2022-08-03T01:35:08;3.40;;;2.53;;
16922;SDS011;8578;50.938;13.556;2022-08-03T01:37:37;3.27;;;2.50;;
16922;SDS011;8578;50.938;13.556;2022-08-03T01:40:06;3.67;;;2.90;;
16922;SDS011;8578;50.938;13.556;2022-08-03T01:42:35;4.03;;;2.67;;
16922;SDS011;8578;50.938;13.556;2022-08-03T01:45:04;3.10;;;2.67;;
16922;SDS011;8578;50.938;13.556;2022-08-03T01:47:33;3.00;;;2.70;;
16922;SDS011;8578;50.938;13.556;2022-08-03T01:50:01;2.67;;;2.40;;
16922;SDS011;8578;50.938;13.556;2022-08-03T01:52:29;3.30;;;2.60;;
16922;SDS011;8578;50.938;13.556;2022-08-03T01:54:56;3.17;;;2.80;;
16922;SDS011;8578;50.938;13.556;2022-08-03T01:57:24;3.83;;;2.97;;
16922;SDS011;8578;50.938;13.556;2022-08-03T01:59:54;4.23;;;2.70;;
16922;SDS011;8578;50.938;13.556;2022-08-03T02:02:24;4.47;;;2.87;;
16922;SDS011;8578;50.938;13.556;2022-08-03T02:04:59;3.33;;;2.63;;
16922;SDS011;8578;50.938;13.556;2022-08-03T02:07:27;3.10;;;2.70;;
16922;SDS011;8578;50.938;13.556;2022-08-03T02:09:55;4.00;;;2.60;;
16922;SDS011;8578;50.938;13.556;2022-08-03T02:12:24;3.27;;;2.80;;
16922;SDS011;8578;50.938;13.556;2022-08-03T02:14:51;3.63;;;2.83;;
16922;SDS011;8578;50.938;13.556;2022-08-03T02:17:20;3.93;;;2.73;;
16922;SDS011;8578;50.938;13.556;2022-08-03T02:20:07;2.93;;;2.63;;
16922;SDS011;8578;50.938;13.556;2022-08-03T02:22:34;4.57;;;2.80;;
16922;SDS011;8578;50.938;13.556;2022-08-03T02:25:03;4.20;;;3.00;;
16922;SDS011;8578;50.938;13.556;2022-08-03T02:27:31;7.43;;;2.70;;
16922;SDS011;8578;50.938;13.556;2022-08-03T02:29:59;2.93;;;2.50;;
16922;SDS011;8578;50.938;13.556;2022-08-03T02:32:28;3.70;;;2.50;;
16922;SDS011;8578;50.938;13.556;2022-08-03T02:34:56;59.40;;;5.00;;
16922;SDS011;8578;50.938;13.556;2022-08-03T02:37:26;26.47;;;3.70;;
16922;SDS011;8578;50.938;13.556;2022-08-03T02:39:56;4.97;;;2.90;;
16922;SDS011;8578;50.938;13.556;2022-08-03T02:42:24;3.23;;;2.80;;
16922;SDS011;8578;50.938;13.556;2022-08-03T02:44:53;3.83;;;2.80;;
16922;SDS011;8578;50.938;13.556;2022-08-03T02:47:21;3.67;;;2.70;;
16922;SDS011;8578;50.938;13.556;2022-08-03T02:49:50;3.60;;;2.90;;
16922;SDS011;8578;50.938;13.556;2022-08-03T02:52:19;4.20;;;2.80;;
16922;SDS011;8578;50.938;13.556;2022-08-03T02:54:49;2.90;;;2.60;;
16922;SDS011;8578;50.938;13.556;2022-08-03T02:57:17;3.20;;;2.90;;
16922;SDS011;8578;50.938;13.556;2022-08-03T02:59:45;3.10;;;2.80;;
16922;SDS011;8578;50.938;13.556;2022-08-03T03:02:13;3.57;;;2.50;;
16922;SDS011;8578;50.938;13.556;2022-08-03T03:04:42;3.27;;;2.67;;
16922;SDS011;8578;50.938;13.556;2022-08-03T03:07:30;3.90;;;2.80;;
16922;SDS011;8578;50.938;13.556;2022-08-03T03:10:19;4.70;;;2.63;;
16922;SDS011;8578;50.938;13.556;2022-08-03T03:12:47;3.07;;;2.53;;
16922;SDS011;8578;50.938;13.556;2022-08-03T03:15:14;4.20;;;3.00;;
16922;SDS011;8578;50.938;13.556;2022-08-03T03:17:42;3.23;;;2.90;;
16922;SDS011;8578;50.938;13.556;2022-08-03T03:20:10;4.57;;;2.60;;
16922;SDS011;8578;50.938;13.556;2022-08-03T03:22:38;5.27;;;2.77;;
16922;SDS011;8578;50.938;13.556;2022-08-03T03:25:10;3.10;;;2.70;;
16922;SDS011;8578;50.938;13.556;2022-08-03T03:27:39;4.83;;;2.80;;
16922;SDS011;8578;50.938;13.556;2022-08-03T03:30:14;3.43;;;2.63;;
16922;SDS011;8578;50.938;13.556;2022-08-03T03:32:42;3.57;;;2.70;;
16922;SDS011;8578;50.938;13.556;2022-08-03T03:35:09;3.10;;;2.80;;
16922;SDS011;8578;50.938;13.556;2022-08-03T03:37:37;2.67;;;2.33;;
16922;SDS011;8578;50.938;13.556;2022-08-03T03:40:05;4.43;;;2.60;;
16922;SDS011;8578;50.938;13.556;2022-08-03T03:42:34;4.67;;;3.07;;
16922;SDS011;8578;50.938;13.556;2022-08-03T03:45:05;3.00;;;2.73;;
16922;SDS011;8578;50.938;13.556;2022-08-03T03:47:34;4.67;;;2.40;;
16922;SDS011;8578;50.938;13.556;2022-08-03T03:50:02;3.07;;;2.73;;
16922;SDS011;8578;50.938;13.556;2022-08-03T03:52:30;3.60;;;2.97;;
16922;SDS011;8578;50.938;13.556;2022-08-03T03:54:57;3.40;;;2.97;;
16922;SDS011;8578;50.938;13.556;2022-08-03T03:57:26;6.63;;;2.90;;
16922;SDS011;8578;50.938;13.556;2022-08-03T03:59:54;2.90;;;2.60;;
16922;SDS011;8578;50.938;13.556;2022-08-03T04:02:23;3.13;;;2.83;;
16922;SDS011;8578;50.938;13.556;2022-08-03T04:04:50;3.10;;;2.67;;
16922;SDS011;8578;50.938;13.556;2022-08-03T04:07:39;4.10;;;2.90;;
16922;SDS011;8578;50.938;13.556;2022-08-03T04:10:28;3.20;;;2.60;;
16922;SDS011;8578;50.938;13.556;2022-08-03T04:13:15;3.47;;;2.53;;
16922;SDS011;8578;50.938;13.556;2022-08-03T04:15:43;3.20;;;2.50;;
16922;SDS011;8578;50.938;13.556;2022-08-03T04:18:13;3.40;;;2.70;;
16922;SDS011;8578;50.938;13.556;2022-08-03T04:20:43;5.87;;;2.77;;
16922;SDS011;8578;50.938;13.556;2022-08-03T04:23:13;3.40;;;2.80;;
16922;SDS011;8578;50.938;13.556;2022-08-03T04:25:41;3.13;;;2.83;;
16922;SDS011;8578;50.938;13.556;2022-08-03T04:28:09;3.13;;;2.80;;
16922;SDS011;8578;50.938;13.556;2022-08-03T04:30:57;4.63;;;2.93;;
16922;SDS011;8578;50.938;13.556;2022-08-03T04:33:26;6.17;;;2.80;;
16922;SDS011;8578;50.938;13.556;2022-08-03T04:35:56;4.67;;;2.60;;
16922;SDS011;8578;50.938;13.556;2022-08-03T04:38:28;4.50;;;2.77;;
16922;SDS011;8578;50.938;13.556;2022-08-03T04:40:56;3.10;;;2.80;;
16922;SDS011;8578;50.938;13.556;2022-08-03T04:43:25;3.70;;;2.80;;
16922;SDS011;8578;50.938;13.556;2022-08-03T04:45:53;3.17;;;2.40;;
16922;SDS011;8578;50.938;13.556;2022-08-03T04:48:21;3.73;;;2.87;;
16922;SDS011;8578;50.938;13.556;2022-08-03T04:50:50;3.07;;;2.47;;
16922;SDS011;8578;50.938;13.556;2022-08-03T04:53:18;3.00;;;2.70;;
16922;SDS011;8578;50.938;13.556;2022-08-03T04:55:46;3.60;;;2.67;;
16922;SDS011;8578;50.938;13.556;2022-08-03T04:58:14;2.90;;;2.57;;
16922;SDS011;8578;50.938;13.556;2022-08-03T05:00:41;3.30;;;3.00;;
16922;SDS011;8578;50.938;13.556;2022-08-03T05:03:11;3.13;;;2.60;;
16922;SDS011;8578;50.938;13.556;2022-08-03T05:05:51;4.33;;;2.80;;
16922;SDS011;8578;50.938;13.556;2022-08-03T05:08:36;5.40;;;2.90;;
16922;SDS011;8578;50.938;13.556;2022-08-03T05:11:12;3.40;;;3.10;;
16922;SDS011;8578;50.938;13.556;2022-08-03T05:13:40;2.80;;;2.60;;
16922;SDS011;8578;50.938;13.556;2022-08-03T05:16:07;3.00;;;2.40;;
16922;SDS011;8578;50.938;13.556;2022-08-03T05:18:35;5.13;;;3.07;;
16922;SDS011;8578;50.938;13.556;2022-08-03T05:21:04;3.37;;;2.90;;
16922;SDS011;8578;50.938;13.556;2022-08-03T05:23:31;3.27;;;2.97;;
16922;SDS011;8578;50.938;13.556;2022-08-03T05:25:58;6.47;;;2.87;;
16922;SDS011;8578;50.938;13.556;2022-08-03T05:28:26;4.07;;;2.90;;
16922;SDS011;8578;50.938;13.556;2022-08-03T05:30:53;3.80;;;3.13;;
16922;SDS011;8578;50.938;13.556;2022-08-03T05:33:21;9.63;;;3.03;;
16922;SDS011;8578;50.938;13.556;2022-08-03T05:35:48;6.67;;;5.23;;
16922;SDS011;8578;50.938;13.556;2022-08-03T05:38:30;8.13;;;5.57;;
16922;SDS011;8578;50.938;13.556;2022-08-03T05:40:59;6.17;;;4.30;;
16922;SDS011;8578;50.938;13.556;2022-08-03T05:43:47;5.10;;;4.57;;
16922;SDS011;8578;50.938;13.556;2022-08-03T05:46:14;5.70;;;4.77;;
16922;SDS011;8578;50.938;13.556;2022-08-03T05:48:42;7.77;;;5.87;;
16922;SDS011;8578;50.938;13.556;2022-08-03T05:51:10;6.33;;;3.77;;
16922;SDS011;8578;50.938;13.556;2022-08-03T05:53:39;4.93;;;3.93;;
16922;SDS011;8578;50.938;13.556;2022-08-03T05:56:07;4.77;;;3.47;;
16922;SDS011;8578;50.938;13.556;2022-08-03T05:58:41;4.63;;;3.43;;
16922;SDS011;8578;50.938;13.556;2022-08-03T06:01:09;5.70;;;4.13;;
16922;SDS011;8578;50.938;13.556;2022-08-03T06:03:36;4.73;;;3.30;;
16922;SDS011;8578;50.938;13.556;2022-08-03T06:06:04;4.37;;;3.23;;
16922;SDS011;8578;50.938;13.556;2022-08-03T06:08:32;5.23;;;3.20;;
16922;SDS011;8578;50.938;13.556;2022-08-03T06:11:01;4.80;;;3.50;;
16922;SDS011;8578;50.938;13.556;2022-08-03T06:13:28;3.57;;;3.00;;
16922;SDS011;8578;50.938;13.556;2022-08-03T06:15:56;4.00;;;3.00;;
16922;SDS011;8578;50.938;13.556;2022-08-03T06:18:23;3.10;;;2.70;;
16922;SDS011;8578;50.938;13.556;2022-08-03T06:20:51;2.77;;;2.50;;
16922;SDS011;8578;50.938;13.556;2022-08-03T06:23:20;5.03;;;2.73;;
16922;SDS011;8578;50.938;13.556;2022-08-03T06:26:09;3.80;;;2.77;;
16922;SDS011;8578;50.938;13.556;2022-08-03T06:28:38;2.57;;;2.20;;
16922;SDS011;8578;50.938;13.556;2022-08-03T06:31:17;2.07;;;1.87;;
16922;SDS011;8578;50.938;13.556;2022-08-03T06:33:44;2.50;;;1.87;;
16922;SDS011;8578;50.938;13.556;2022-08-03T06:36:32;2.63;;;2.00;;
16922;SDS011;8578;50.938;13.556;2022-08-03T06:38:59;2.53;;;2.00;;
16922;SDS011;8578;50.938;13.556;2022-08-03T06:41:28;2.53;;;2.07;;
16922;SDS011;8578;50.938;13.556;2022-08-03T06:44:06;2.23;;;1.90;;
16922;SDS011;8578;50.938;13.556;2022-08-03T06:46:35;2.03;;;1.83;;
16922;SDS011;8578;50.938;13.556;2022-08-03T06:49:03;4.83;;;2.10;;
16922;SDS011;8578;50.938;13.556;2022-08-03T06:51:30;2.17;;;1.80;;
16922;SDS011;8578;50.938;13.556;2022-08-03T06:54:18;2.17;;;1.77;;
16922;SDS011;8578;50.938;13.556;2022-08-03T06:56:48;1.90;;;1.80;;
16922;SDS011;8578;50.938;13.556;2022-08-03T06:59:16;4.03;;;1.90;;
16922;SDS011;8578;50.938;13.556;2022-08-03T07:02:04;2.60;;;1.90;;
16922;SDS011;8578;50.938;13.556;2022-08-03T07:04:31;2.07;;;1.83;;
16922;SDS011;8578;50.938;13.556;2022-08-03T07:06:59;2.23;;;1.90;;
16922;SDS011;8578;50.938;13.556;2022-08-03T07:09:26;4.23;;;1.90;;
16922;SDS011;8578;50.938;13.556;2022-08-03T07:11:55;3.00;;;1.90;;
16922;SDS011;8578;50.938;13.556;2022-08-03T07:14:23;2.07;;;1.87;;
16922;SDS011;8578;50.938;13.556;2022-08-03T07:16:51;2.27;;;2.00;;
16922;SDS011;8578;50.938;13.556;2022-08-03T07:19:18;1.97;;;1.80;;
16922;SDS011;8578;50.938;13.556;2022-08-03T07:21:46;1.87;;;1.67;;
16922;SDS011;8578;50.938;13.556;2022-08-03T07:24:13;2.03;;;1.80;;
16922;SDS011;8578;50.938;13.556;2022-08-03T07:26:41;1.80;;;1.70;;
16922;SDS011;8578;50.938;13.556;2022-08-03T07:29:11;3.70;;;1.40;;
16922;SDS011;8578;50.938;13.556;2022-08-03T07:31:40;5.17;;;1.97;;
16922;SDS011;8578;50.938;13.556;2022-08-03T07:34:08;1.73;;;1.63;;
16922;SDS011;8578;50.938;13.556;2022-08-03T07:36:36;1.90;;;1.80;;
16922;SDS011;8578;50.938;13.556;2022-08-03T07:39:04;2.00;;;1.70;;
16922;SDS011;8578;50.938;13.556;2022-08-03T07:41:43;2.20;;;2.00;;
16922;SDS011;8578;50.938;13.556;2022-08-03T07:44:12;2.00;;;1.80;;
16922;SDS011;8578;50.938;13.556;2022-08-03T07:46:39;4.50;;;1.77;;
16922;SDS011;8578;50.938;13.556;2022-08-03T07:49:07;3.73;;;1.70;;
16922;SDS011;8578;50.938;13.556;2022-08-03T07:51:35;4.87;;;2.00;;
16922;SDS011;8578;50.938;13.556;2022-08-03T07:54:02;2.77;;;2.10;;
16922;SDS011;8578;50.938;13.556;2022-08-03T07:56:30;1.80;;;1.70;;
16922;SDS011;8578;50.938;13.556;2022-08-03T07:58:57;1.70;;;1.50;;
16922;SDS011;8578;50.938;13.556;2022-08-03T08:01:26;4.93;;;2.07;;
16922;SDS011;8578;50.938;13.556;2022-08-03T08:03:54;3.07;;;1.50;;
16922;SDS011;8578;50.938;13.556;2022-08-03T08:06:21;2.00;;;1.80;;
16922;SDS011;8578;50.938;13.556;2022-08-03T08:08:49;33.30;;;2.80;;
16922;SDS011;8578;50.938;13.556;2022-08-03T08:11:16;2.03;;;1.60;;
16922;SDS011;8578;50.938;13.556;2022-08-03T08:13:43;3.90;;;2.00;;
16922;SDS011;8578;50.938;13.556;2022-08-03T08:16:11;3.40;;;1.90;;
16922;SDS011;8578;50.938;13.556;2022-08-03T08:18:40;2.67;;;1.67;;
16922;SDS011;8578;50.938;13.556;2022-08-03T08:21:08;1.67;;;1.57;;
16922;SDS011;8578;50.938;13.556;2022-08-03T08:23:35;3.10;;;1.80;;
16922;SDS011;8578;50.938;13.556;2022-08-03T08:26:09;1.80;;;1.47;;
16922;SDS011;8578;50.938;13.556;2022-08-03T08:28:37;1.77;;;1.60;;
16922;SDS011;8578;50.938;13.556;2022-08-03T08:31:04;1.77;;;1.57;;
16922;SDS011;8578;50.938;13.556;2022-08-03T08:33:33;2.77;;;1.87;;
16922;SDS011;8578;50.938;13.556;2022-08-03T08:36:22;2.43;;;1.70;;
16922;SDS011;8578;50.938;13.556;2022-08-03T08:38:50;2.03;;;1.50;;
16922;SDS011;8578;50.938;13.556;2022-08-03T08:41:18;2.77;;;1.63;;
16922;SDS011;8578;50.938;13.556;2022-08-03T08:43:45;3.50;;;1.80;;
16922;SDS011;8578;50.938;13.556;2022-08-03T08:46:13;1.90;;;1.70;;
16922;SDS011;8578;50.938;13.556;2022-08-03T08:48:49;1.70;;;1.60;;
16922;SDS011;8578;50.938;13.556;2022-08-03T08:51:18;2.67;;;1.63;;
16922;SDS011;8578;50.938;13.556;2022-08-03T08:53:48;1.50;;;1.40;;
16922;SDS011;8578;50.938;13.556;2022-08-03T08:56:16;2.13;;;1.80;;
16922;SDS011;8578;50.938;13.556;2022-08-03T08:58:46;3.60;;;1.60;;
16922;SDS011;8578;50.938;13.556;2022-08-03T09:01:16;1.40;;;1.30;;
16922;SDS011;8578;50.938;13.556;2022-08-03T09:03:44;1.90;;;1.30;;
16922;SDS011;8578;50.938;13.556;2022-08-03T09:06:11;1.93;;;1.30;;
16922;SDS011;8578;50.938;13.556;2022-08-03T09:08:40;2.87;;;1.40;;
16922;SDS011;8578;50.938;13.556;2022-08-03T09:11:09;1.63;;;1.40;;
16922;SDS011;8578;50.938;13.556;2022-08-03T09:13:37;4.50;;;1.30;;
16922;SDS011;8578;50.938;13.556;2022-08-03T09:16:09;3.23;;;1.37;;
16922;SDS011;8578;50.938;13.556;2022-08-03T09:18:36;3.27;;;1.37;;
16922;SDS011;8578;50.938;13.556;2022-08-03T09:21:14;2.17;;;1.50;;
16922;SDS011;8578;50.938;13.556;2022-08-03T09:24:00;1.53;;;1.37;;
16922;SDS011;8578;50.938;13.556;2022-08-03T09:26:33;2.27;;;1.67;;
16922;SDS011;8578;50.938;13.556;2022-08-03T09:29:02;3.73;;;1.60;;
16922;SDS011;8578;50.938;13.556;2022-08-03T09:31:38;3.57;;;1.50;;
16922;SDS011;8578;50.938;13.556;2022-08-03T09:34:10;1.93;;;1.30;;
16922;SDS011;8578;50.938;13.556;2022-08-03T09:36:38;1.60;;;1.50;;
16922;SDS011;8578;50.938;13.556;2022-08-03T09:39:07;2.80;;;1.30;;
16922;SDS011;8578;50.938;13.556;2022-08-03T09:41:38;3.00;;;1.23;;
16922;SDS011;8578;50.938;13.556;2022-08-03T09:44:06;3.87;;;1.57;;
16922;SDS011;8578;50.938;13.556;2022-08-03T09:46:50;1.33;;;1.23;;
16922;SDS011;8578;50.938;13.556;2022-08-03T09:49:17;1.93;;;1.40;;
16922;SDS011;8578;50.938;13.556;2022-08-03T09:51:45;3.37;;;1.60;;
16922;SDS011;8578;50.938;13.556;2022-08-03T09:54:32;1.70;;;1.60;;
16922;SDS011;8578;50.938;13.556;2022-08-03T09:57:01;3.70;;;1.40;;
16922;SDS011;8578;50.938;13.556;2022-08-03T09:59:29;2.00;;;1.33;;
16922;SDS011;8578;50.938;13.556;2022-08-03T10:01:58;7.13;;;1.77;;
16922;SDS011;8578;50.938;13.556;2022-08-03T10:04:27;2.37;;;1.30;;
16922;SDS011;8578;50.938;13.556;2022-08-03T10:07:01;2.27;;;1.30;;
16922;SDS011;8578;50.938;13.556;2022-08-03T10:09:29;2.03;;;1.50;;
16922;SDS011;8578;50.938;13.556;2022-08-03T10:11:56;1.50;;;1.40;;
16922;SDS011;8578;50.938;13.556;2022-08-03T10:14:34;3.57;;;1.40;;
16922;SDS011;8578;50.938;13.556;2022-08-03T10:17:02;1.50;;;1.40;;
16922;SDS011;8578;50.938;13.556;2022-08-03T10:19:29;1.20;;;1.10;;
16922;SDS011;8578;50.938;13.556;2022-08-03T10:22:02;2.17;;;1.43;;
16922;SDS011;8578;50.938;13.556;2022-08-03T10:24:30;4.97;;;1.60;;
16922;SDS011;8578;50.938;13.556;2022-08-03T10:27:01;3.80;;;1.50;;
16922;SDS011;8578;50.938;13.556;2022-08-03T10:29:31;1.40;;;1.30;;
16922;SDS011;8578;50.938;13.556;2022-08-03T10:32:02;1.17;;;1.10;;
16922;SDS011;8578;50.938;13.556;2022-08-03T10:34:33;3.20;;;1.50;;
16922;SDS011;8578;50.938;13.556;2022-08-03T10:37:00;2.70;;;1.30;;
16922;SDS011;8578;50.938;13.556;2022-08-03T10:39:29;1.53;;;1.30;;
16922;SDS011;8578;50.938;13.556;2022-08-03T10:41:57;1.63;;;1.20;;
16922;SDS011;8578;50.938;13.556;2022-08-03T10:44:29;4.50;;;1.27;;
16922;SDS011;8578;50.938;13.556;2022-08-03T10:46:58;1.30;;;1.20;;
16922;SDS011;8578;50.938;13.556;2022-08-03T10:49:29;1.07;;;0.97;;
16922;SDS011;8578;50.938;13.556;2022-08-03T10:52:00;1.37;;;1.27;;
16922;SDS011;8578;50.938;13.556;2022-08-03T10:54:48;1.43;;;1.23;;
16922;SDS011;8578;50.938;13.556;2022-08-03T10:57:43;1.87;;;1.40;;
16922;SDS011;8578;50.938;13.556;2022-08-03T11:00:13;3.13;;;1.23;;
16922;SDS011;8578;50.938;13.556;2022-08-03T11:05:28;2.27;;;1.37;;
16922;SDS011;8578;50.938;13.556;2022-08-03T11:10:42;1.30;;;1.20;;
16922;SDS011;8578;50.938;13.556;2022-08-03T11:13:09;1.33;;;1.23;;
16922;SDS011;8578;50.938;13.556;2022-08-03T11:15:42;3.10;;;1.50;;
16922;SDS011;8578;50.938;13.556;2022-08-03T11:18:10;1.60;;;1.20;;
16922;SDS011;8578;50.938;13.556;2022-08-03T11:20:46;1.30;;;1.20;;
16922;SDS011;8578;50.938;13.556;2022-08-03T11:23:14;2.80;;;1.10;;
16922;SDS011;8578;50.938;13.556;2022-08-03T11:28:28;2.53;;;1.17;;
16922;SDS011;8578;50.938;13.556;2022-08-03T11:30:56;2.00;;;1.17;;
16922;SDS011;8578;50.938;13.556;2022-08-03T11:33:29;1.30;;;1.20;;
16922;SDS011;8578;50.938;13.556;2022-08-03T11:35:59;2.40;;;1.00;;
16922;SDS011;8578;50.938;13.556;2022-08-03T11:38:27;2.80;;;1.37;;
16922;SDS011;8578;50.938;13.556;2022-08-03T11:40:54;1.10;;;1.00;;
16922;SDS011;8578;50.938;13.556;2022-08-03T11:46:10;1.17;;;1.07;;
16922;SDS011;8578;50.938;13.556;2022-08-03T11:48:55;1.30;;;1.20;;
16922;SDS011;8578;50.938;13.556;2022-08-03T11:51:36;1.50;;;1.37;;
16922;SDS011;8578;50.938;13.556;2022-08-03T11:54:05;1.20;;;1.10;;
16922;SDS011;8578;50.938;13.556;2022-08-03T11:56:42;1.30;;;1.20;;
16922;SDS011;8578;50.938;13.556;2022-08-03T11:59:09;1.90;;;1.30;;
16922;SDS011;8578;50.938;13.556;2022-08-03T12:01:46;2.43;;;1.20;;
16922;SDS011;8578;50.938;13.556;2022-08-03T12:04:14;2.97;;;1.20;;
16922;SDS011;8578;50.938;13.556;2022-08-03T12:09:26;1.50;;;1.03;;
16922;SDS011;8578;50.938;13.556;2022-08-03T12:11:53;3.80;;;1.13;;
16922;SDS011;8578;50.938;13.556;2022-08-03T12:14:26;2.27;;;1.47;;
16922;SDS011;8578;50.938;13.556;2022-08-03T12:17:14;1.37;;;1.27;;
16922;SDS011;8578;50.938;13.556;2022-08-03T12:19:41;1.40;;;1.30;;
16922;SDS011;8578;50.938;13.556;2022-08-03T12:22:09;1.10;;;1.00;;
16922;SDS011;8578;50.938;13.556;2022-08-03T12:24:41;1.30;;;1.20;;
16922;SDS011;8578;50.938;13.556;2022-08-03T12:27:08;1.40;;;1.30;;
16922;SDS011;8578;50.938;13.556;2022-08-03T12:29:36;1.40;;;1.30;;
16922;SDS011;8578;50.938;13.556;2022-08-03T12:32:04;1.50;;;1.40;;
16922;SDS011;8578;50.938;13.556;2022-08-03T12:34:43;2.67;;;1.27;;
16922;SDS011;8578;50.938;13.556;2022-08-03T12:37:13;1.20;;;1.10;;
16922;SDS011;8578;50.938;13.556;2022-08-03T12:39:52;1.83;;;1.20;;
16922;SDS011;8578;50.938;13.556;2022-08-03T12:42:31;2.03;;;1.50;;
16922;SDS011;8578;50.938;13.556;2022-08-03T12:47:49;1.47;;;1.37;;
16922;SDS011;8578;50.938;13.556;2022-08-03T12:50:22;3.13;;;1.60;;
16922;SDS011;8578;50.938;13.556;2022-08-03T12:52:50;3.23;;;1.27;;
16922;SDS011;8578;50.938;13.556;2022-08-03T12:55:19;1.60;;;1.45;;
16922;SDS011;8578;50.938;13.556;2022-08-03T12:57:47;4.83;;;1.40;;
16922;SDS011;8578;50.938;13.556;2022-08-03T13:00:16;79.10;;;4.67;;
16922;SDS011;8578;50.938;13.556;2022-08-03T13:02:58;6.00;;;1.70;;
16922;SDS011;8578;50.938;13.556;2022-08-03T13:05:46;1.42;;;1.33;;
16922;SDS011;8578;50.938;13.556;2022-08-03T13:08:17;2.67;;;1.60;;
16922;SDS011;8578;50.938;13.556;2022-08-03T13:10:46;1.98;;;1.50;;
16922;SDS011;8578;50.938;13.556;2022-08-03T13:13:13;2.00;;;1.05;;
16922;SDS011;8578;50.938;13.556;2022-08-03T13:15:41;2.95;;;1.50;;
16922;SDS011;8578;50.938;13.556;2022-08-03T13:18:13;2.55;;;1.63;;
16922;SDS011;8578;50.938;13.556;2022-08-03T13:20:42;2.05;;;1.30;;
16922;SDS011;8578;50.938;13.556;2022-08-03T13:23:10;2.50;;;1.25;;
16922;SDS011;8578;50.938;13.556;2022-08-03T13:25:49;4.20;;;1.45;;
16922;SDS011;8578;50.938;13.556;2022-08-03T13:28:21;1.80;;;1.60;;
16922;SDS011;8578;50.938;13.556;2022-08-03T13:30:48;8.00;;;1.45;;
16922;SDS011;8578;50.938;13.556;2022-08-03T13:33:16;1.52;;;1.42;;
16922;SDS011;8578;50.938;13.556;2022-08-03T13:35:43;2.13;;;1.48;;
16922;SDS011;8578;50.938;13.556;2022-08-03T13:38:11;4.40;;;1.30;;
16922;SDS011;8578;50.938;13.556;2022-08-03T13:40:40;1.77;;;1.30;;
16922;SDS011;8578;50.938;13.556;2022-08-03T13:43:12;1.45;;;1.35;;
16922;SDS011;8578;50.938;13.556;2022-08-03T13:45:40;1.95;;;1.60;;
16922;SDS011;8578;50.938;13.556;2022-08-03T13:48:15;1.70;;;1.52;;
16922;SDS011;8578;50.938;13.556;2022-08-03T13:51:02;1.80;;;1.70;;
16922;SDS011;8578;50.938;13.556;2022-08-03T13:53:48;2.13;;;1.45;;
16922;SDS011;8578;50.938;13.556;2022-08-03T13:56:15;1.92;;;1.70;;
16922;SDS011;8578;50.938;13.556;2022-08-03T13:58:44;4.88;;;1.60;;
16922;SDS011;8578;50.938;13.556;2022-08-03T14:01:11;2.97;;;1.70;;
16922;SDS011;8578;50.938;13.556;2022-08-03T14:03:39;2.10;;;1.33;;
16922;SDS011;8578;50.938;13.556;2022-08-03T14:06:06;2.05;;;1.58;;
16922;SDS011;8578;50.938;13.556;2022-08-03T14:08:34;1.67;;;1.58;;
16922;SDS011;8578;50.938;13.556;2022-08-03T14:11:02;2.33;;;1.50;;
16922;SDS011;8578;50.938;13.556;2022-08-03T14:13:29;1.60;;;1.50;;
16922;SDS011;8578;50.938;13.556;2022-08-03T14:15:58;1.67;;;1.58;;
16922;SDS011;8578;50.938;13.556;2022-08-03T14:18:27;1.73;;;1.63;;
16922;SDS011;8578;50.938;13.556;2022-08-03T14:20:59;1.77;;;1.67;;
16922;SDS011;8578;50.938;13.556;2022-08-03T14:23:31;2.10;;;1.73;;
16922;SDS011;8578;50.938;13.556;2022-08-03T14:25:59;1.80;;;1.70;;
16922;SDS011;8578;50.938;13.556;2022-08-03T14:28:26;2.17;;;1.92;;
16922;SDS011;8578;50.938;13.556;2022-08-03T14:30:54;2.13;;;1.60;;
16922;SDS011;8578;50.938;13.556;2022-08-03T14:33:23;2.33;;;1.92;;
16922;SDS011;8578;50.938;13.556;2022-08-03T14:35:51;2.67;;;1.80;;
16922;SDS011;8578;50.938;13.556;2022-08-03T14:38:19;1.75;;;1.65;;
16922;SDS011;8578;50.938;13.556;2022-08-03T14:40:47;2.25;;;1.55;;
16922;SDS011;8578;50.938;13.556;2022-08-03T14:43:15;2.38;;;1.90;;
16922;SDS011;8578;50.938;13.556;2022-08-03T14:45:45;1.95;;;1.80;;
16922;SDS011;8578;50.938;13.556;2022-08-03T14:48:12;2.90;;;1.60;;
16922;SDS011;8578;50.938;13.556;2022-08-03T14:51:01;1.70;;;1.60;;
16922;SDS011;8578;50.938;13.556;2022-08-03T14:53:29;2.85;;;1.80;;
16922;SDS011;8578;50.938;13.556;2022-08-03T14:55:56;11.27;;;2.00;;
16922;SDS011;8578;50.938;13.556;2022-08-03T14:58:24;2.10;;;1.90;;
16922;SDS011;8578;50.938;13.556;2022-08-03T15:00:52;2.72;;;1.90;;
16922;SDS011;8578;50.938;13.556;2022-08-03T15:03:20;2.28;;;1.80;;
16922;SDS011;8578;50.938;13.556;2022-08-03T15:05:50;2.17;;;1.98;;
16922;SDS011;8578;50.938;13.556;2022-08-03T15:08:19;2.22;;;1.67;;
16922;SDS011;8578;50.938;13.556;2022-08-03T15:10:47;2.08;;;1.90;;
16922;SDS011;8578;50.938;13.556;2022-08-03T15:13:14;3.67;;;1.80;;
16922;SDS011;8578;50.938;13.556;2022-08-03T15:15:42;2.22;;;2.03;;
16922;SDS011;8578;50.938;13.556;2022-08-03T15:18:10;3.67;;;2.00;;
16922;SDS011;8578;50.938;13.556;2022-08-03T15:20:37;2.58;;;2.00;;
16922;SDS011;8578;50.938;13.556;2022-08-03T15:23:11;2.05;;;1.85;;
16922;SDS011;8578;50.938;13.556;2022-08-03T15:25:40;20.30;;;2.28;;